createdAt,value
2023-06-24T00:02:12.515Z,15.32
2023-06-24T00:04:38.842Z,15.21
2023-06-24T00:07:05.191Z,15.14
2023-06-24T00:09:31.526Z,15.12
2023-06-24T00:11:57.835Z,15.11
2023-06-24T00:14:24.147Z,15.05
2023-06-24T00:16:50.446Z,15.09
2023-06-24T00:19:16.775Z,15.10
2023-06-24T00:21:43.077Z,15.06
2023-06-24T00:24:09.396Z,15.07
2023-06-24T00:26:35.715Z,14.99
2023-06-24T00:29:02.046Z,14.89
2023-06-24T00:31:28.474Z,14.93
2023-06-24T00:33:54.828Z,14.89
2023-06-24T00:36:21.162Z,14.96
2023-06-24T00:38:47.483Z,14.91
2023-06-24T00:41:15.643Z,14.84
2023-06-24T00:43:43.347Z,14.87
2023-06-24T00:46:09.648Z,14.84
2023-06-24T00:48:35.974Z,14.78
2023-06-24T00:51:02.307Z,14.67
2023-06-24T00:53:28.614Z,14.69
2023-06-24T00:55:54.935Z,14.75
2023-06-24T00:58:21.269Z,14.72
2023-06-24T01:00:47.584Z,14.66
2023-06-24T01:03:14.001Z,14.65
2023-06-24T01:05:40.448Z,14.58
2023-06-24T01:08:06.802Z,14.57
2023-06-24T01:10:33.118Z,14.56
2023-06-24T01:12:59.428Z,14.64
2023-06-24T01:15:25.762Z,14.64
2023-06-24T01:17:52.115Z,14.66
2023-06-24T01:20:18.473Z,14.58
2023-06-24T01:22:44.820Z,14.57
2023-06-24T01:25:11.127Z,14.62
2023-06-24T01:27:37.420Z,14.53
2023-06-24T01:30:03.841Z,14.51
2023-06-24T01:32:30.355Z,14.46
2023-06-24T01:34:56.774Z,14.44
2023-06-24T01:37:23.104Z,14.30
2023-06-24T01:39:49.435Z,14.36
2023-06-24T01:42:15.768Z,14.31
2023-06-24T01:44:42.082Z,14.34
2023-06-24T01:47:08.448Z,14.26
2023-06-24T01:49:34.780Z,14.36
2023-06-24T01:52:01.094Z,14.24
2023-06-24T01:54:27.402Z,14.31
2023-06-24T01:56:53.703Z,14.29
2023-06-24T01:59:20.009Z,14.25
2023-06-24T02:01:46.330Z,14.22
2023-06-24T02:04:12.655Z,14.22
2023-06-24T02:06:39.088Z,14.22
2023-06-24T02:09:05.462Z,14.13
2023-06-24T02:11:31.789Z,14.11
2023-06-24T02:13:58.098Z,14.19
2023-06-24T02:16:24.425Z,14.17
2023-06-24T02:18:50.742Z,14.14
2023-06-24T02:21:17.063Z,14.09
2023-06-24T02:23:43.387Z,14.08
2023-06-24T02:26:09.696Z,14.00
2023-06-24T02:28:36.028Z,13.95
2023-06-24T02:31:02.372Z,13.86
2023-06-24T02:33:28.743Z,13.99
2023-06-24T02:35:55.061Z,14.03
2023-06-24T02:38:21.383Z,14.00
2023-06-24T02:40:47.708Z,13.99
2023-06-24T02:43:14.018Z,13.93
2023-06-24T02:45:40.334Z,13.96
2023-06-24T02:48:06.694Z,13.92
2023-06-24T02:50:33.022Z,13.88
2023-06-24T02:52:59.320Z,13.94
2023-06-24T02:55:25.645Z,14.00
2023-06-24T02:57:51.981Z,13.89
2023-06-24T03:00:18.288Z,13.84
2023-06-24T03:02:44.718Z,13.63
2023-06-24T03:05:11.104Z,13.71
2023-06-24T03:07:37.408Z,13.68
2023-06-24T03:10:03.729Z,13.76
2023-06-24T03:12:30.039Z,13.79
2023-06-24T03:14:56.327Z,13.78
2023-06-24T03:17:22.643Z,13.74
2023-06-24T03:19:48.979Z,13.71
2023-06-24T03:22:15.290Z,13.67
2023-06-24T03:24:41.603Z,13.60
2023-06-24T03:27:07.929Z,13.59
2023-06-24T03:29:34.249Z,13.62
2023-06-24T03:32:00.602Z,13.44
2023-06-24T03:34:26.952Z,13.51
2023-06-24T03:36:53.273Z,13.51
2023-06-24T03:39:19.641Z,13.54
2023-06-24T03:41:45.940Z,13.53
2023-06-24T03:44:12.246Z,13.60
2023-06-24T03:46:38.573Z,13.58
2023-06-24T03:49:04.900Z,13.58
2023-06-24T03:51:31.230Z,13.61
2023-06-24T03:53:57.554Z,13.71
2023-06-24T03:56:23.915Z,13.74
2023-06-24T03:58:50.231Z,13.68
2023-06-24T04:01:16.574Z,13.73
2023-06-24T04:03:42.976Z,13.77
2023-06-24T04:06:09.316Z,13.74
2023-06-24T04:08:35.627Z,13.74
2023-06-24T04:11:01.967Z,13.84
2023-06-24T04:13:28.319Z,13.79
2023-06-24T04:15:54.619Z,13.79
2023-06-24T04:18:20.940Z,13.82
2023-06-24T04:20:47.256Z,13.81
2023-06-24T04:23:13.577Z,13.84
2023-06-24T04:25:39.882Z,13.90
2023-06-24T04:28:06.221Z,13.82
2023-06-24T04:30:32.531Z,13.68
2023-06-24T04:32:58.875Z,13.68
2023-06-24T04:35:25.258Z,13.80
2023-06-24T04:37:51.593Z,13.88
2023-06-24T04:40:17.928Z,13.92
2023-06-24T04:42:44.296Z,13.92
2023-06-24T04:45:10.599Z,13.95
2023-06-24T04:47:36.920Z,13.83
2023-06-24T04:50:03.278Z,13.78
2023-06-24T04:52:29.582Z,13.86
2023-06-24T04:54:55.904Z,13.93
2023-06-24T04:57:22.228Z,13.96
2023-06-24T04:59:48.573Z,13.84
2023-06-24T05:02:14.877Z,13.84
2023-06-24T05:04:41.277Z,13.95
2023-06-24T05:07:07.718Z,13.97
2023-06-24T05:09:34.054Z,13.87
2023-06-24T05:12:00.401Z,13.85
2023-06-24T05:14:26.818Z,13.98
2023-06-24T05:16:53.186Z,14.04
2023-06-24T05:19:19.515Z,14.01
2023-06-24T05:21:45.842Z,14.01
2023-06-24T05:24:12.198Z,14.05
2023-06-24T05:26:38.582Z,14.11
2023-06-24T05:29:04.898Z,14.18
2023-06-24T05:31:31.214Z,14.19
2023-06-24T05:33:57.527Z,14.23
2023-06-24T05:36:23.849Z,14.17
2023-06-24T05:38:50.176Z,14.17
2023-06-24T05:41:16.505Z,14.21
2023-06-24T05:43:42.813Z,14.25
2023-06-24T05:46:09.171Z,14.07
2023-06-24T05:48:35.544Z,14.10
2023-06-24T05:51:02.005Z,14.08
2023-06-24T05:53:29.361Z,13.93
2023-06-24T05:55:55.787Z,13.97
2023-06-24T05:58:22.098Z,13.95
2023-06-24T06:00:48.419Z,14.01
2023-06-24T06:03:14.736Z,14.21
2023-06-24T06:05:41.080Z,14.38
2023-06-24T06:08:07.429Z,14.54
2023-06-24T06:10:33.727Z,14.72
2023-06-24T06:13:00.052Z,14.85
2023-06-24T06:15:26.355Z,14.85
2023-06-24T06:17:52.680Z,14.98
2023-06-24T06:20:19.023Z,15.02
2023-06-24T06:22:45.319Z,15.11
2023-06-24T06:25:11.670Z,15.20
2023-06-24T06:27:37.969Z,15.35
2023-06-24T06:30:04.322Z,15.49
2023-06-24T06:32:32.501Z,15.62
2023-06-24T06:34:59.147Z,15.70
2023-06-24T06:37:25.455Z,15.87
2023-06-24T06:39:51.764Z,16.04
2023-06-24T06:42:18.078Z,16.31
2023-06-24T06:44:44.382Z,16.40
2023-06-24T06:47:10.690Z,16.57
2023-06-24T06:49:37.007Z,16.71
2023-06-24T06:52:03.305Z,16.93
2023-06-24T06:54:29.614Z,17.08
2023-06-24T06:56:55.917Z,17.22
2023-06-24T06:59:22.198Z,17.31
2023-06-24T07:01:48.567Z,17.39
2023-06-24T07:04:14.924Z,17.14
2023-06-24T07:06:41.252Z,17.02
2023-06-24T07:09:07.618Z,17.19
2023-06-24T07:11:33.901Z,17.35
2023-06-24T07:14:00.226Z,17.47
2023-06-24T07:16:26.522Z,17.48
2023-06-24T07:18:52.944Z,17.46
2023-06-24T07:21:19.289Z,17.54
2023-06-24T07:23:45.604Z,17.57
2023-06-24T07:26:12.589Z,17.51
2023-06-24T07:28:38.891Z,17.60
2023-06-24T07:31:05.217Z,17.63
2023-06-24T07:33:31.525Z,17.68
2023-06-24T07:35:57.860Z,17.88
2023-06-24T07:38:24.188Z,18.02
2023-06-24T07:40:50.506Z,17.92
2023-06-24T07:43:16.814Z,17.96
2023-06-24T07:45:43.137Z,18.03
2023-06-24T07:48:09.466Z,18.14
2023-06-24T07:50:35.821Z,18.24
2023-06-24T07:53:02.143Z,18.03
2023-06-24T07:55:28.451Z,18.08
2023-06-24T07:57:54.755Z,18.12
2023-06-24T08:00:21.069Z,17.93
2023-06-24T08:02:47.420Z,17.74
2023-06-24T08:05:13.759Z,18.11
2023-06-24T08:07:40.063Z,17.98
2023-06-24T08:10:06.396Z,18.06
2023-06-24T08:12:32.700Z,18.35
2023-06-24T08:14:59.021Z,18.48
2023-06-24T08:17:25.361Z,18.29
2023-06-24T08:19:51.674Z,18.60
2023-06-24T08:22:17.973Z,18.88
2023-06-24T08:24:44.288Z,19.08
2023-06-24T08:27:10.587Z,18.99
2023-06-24T08:29:36.905Z,18.98
2023-06-24T08:32:03.211Z,18.92
2023-06-24T08:34:29.574Z,19.12
2023-06-24T08:36:55.894Z,19.17
2023-06-24T08:39:22.195Z,19.11
2023-06-24T08:41:48.526Z,19.28
2023-06-24T08:44:14.926Z,19.42
2023-06-24T08:46:41.273Z,19.55
2023-06-24T08:49:07.782Z,19.48
2023-06-24T08:51:34.232Z,19.61
2023-06-24T08:54:00.535Z,19.51
2023-06-24T08:56:26.918Z,19.77
2023-06-24T08:58:53.216Z,19.93
2023-06-24T09:01:20.627Z,20.13
2023-06-24T09:03:48.852Z,20.26
2023-06-24T09:06:15.198Z,20.14
2023-06-24T09:08:41.504Z,20.35
2023-06-24T09:11:07.839Z,20.48
2023-06-24T09:13:34.153Z,20.50
2023-06-24T09:16:00.454Z,20.58
2023-06-24T09:18:26.776Z,20.53
2023-06-24T09:20:53.093Z,20.68
2023-06-24T09:23:19.458Z,20.90
2023-06-24T09:25:45.777Z,20.82
2023-06-24T09:28:12.100Z,20.90
2023-06-24T09:30:38.399Z,21.09
2023-06-24T09:33:04.785Z,21.23
2023-06-24T09:35:31.118Z,21.35
2023-06-24T09:37:57.443Z,21.36
2023-06-24T09:40:23.763Z,21.39
2023-06-24T09:42:50.080Z,21.11
2023-06-24T09:45:16.391Z,21.07
2023-06-24T09:47:42.718Z,21.34
2023-06-24T09:50:09.026Z,21.48
2023-06-24T09:52:35.351Z,21.43
2023-06-24T09:55:04.026Z,21.56
2023-06-24T09:57:31.948Z,21.51
2023-06-24T09:59:58.269Z,21.76
2023-06-24T10:02:24.646Z,21.92
2023-06-24T10:04:50.994Z,22.06
2023-06-24T10:07:17.377Z,22.10
2023-06-24T10:09:43.740Z,22.05
2023-06-24T10:12:10.057Z,22.05
2023-06-24T10:14:36.419Z,22.20
2023-06-24T10:17:02.743Z,22.27
2023-06-24T10:19:29.070Z,22.40
2023-06-24T10:21:55.384Z,22.51
2023-06-24T10:24:21.706Z,22.30
2023-06-24T10:26:48.035Z,22.46
2023-06-24T10:29:14.364Z,22.58
2023-06-24T10:31:40.801Z,22.66
2023-06-24T10:34:07.411Z,22.78
2023-06-24T10:36:33.741Z,22.77
2023-06-24T10:39:00.060Z,22.73
2023-06-24T10:41:26.403Z,22.74
2023-06-24T10:43:52.731Z,22.70
2023-06-24T10:46:19.072Z,22.64
2023-06-24T10:48:45.411Z,22.66
2023-06-24T10:51:11.722Z,22.59
2023-06-24T10:53:38.033Z,22.78
2023-06-24T10:56:04.344Z,22.68
2023-06-24T10:58:30.633Z,22.86
2023-06-24T11:00:57.039Z,23.11
2023-06-24T11:03:23.416Z,23.08
2023-06-24T11:05:49.737Z,22.92
2023-06-24T11:08:16.042Z,22.93
2023-06-24T11:10:42.348Z,22.92
2023-06-24T11:13:08.677Z,23.04
2023-06-24T11:15:36.324Z,23.19
2023-06-24T11:18:02.830Z,23.28
2023-06-24T11:20:29.183Z,23.20
2023-06-24T11:22:55.509Z,23.41
2023-06-24T11:25:21.822Z,23.41
2023-06-24T11:27:48.137Z,23.40
2023-06-24T11:30:14.482Z,23.40
2023-06-24T11:32:40.830Z,23.55
2023-06-24T11:35:07.226Z,23.32
2023-06-24T11:37:33.534Z,23.55
2023-06-24T11:39:59.875Z,23.67
2023-06-24T11:42:26.201Z,23.76
2023-06-24T11:44:52.527Z,23.92
2023-06-24T11:47:18.834Z,24.06
2023-06-24T11:49:45.187Z,24.10
2023-06-24T11:52:11.506Z,24.33
2023-06-24T11:54:37.808Z,24.16
2023-06-24T11:57:04.115Z,24.03
2023-06-24T11:59:30.443Z,24.00
2023-06-24T12:01:56.764Z,24.35
2023-06-24T12:04:23.210Z,24.42
2023-06-24T12:06:49.638Z,24.47
2023-06-24T12:09:15.953Z,24.50
2023-06-24T12:11:42.246Z,24.67
2023-06-24T12:14:08.558Z,24.36
2023-06-24T12:16:34.870Z,24.59
2023-06-24T12:19:01.199Z,24.64
2023-06-24T12:21:27.503Z,24.79
2023-06-24T12:23:53.812Z,24.78
2023-06-24T12:26:20.150Z,24.91
2023-06-24T12:28:46.463Z,25.10
2023-06-24T12:31:12.809Z,24.90
2023-06-24T12:33:39.116Z,25.20
2023-06-24T12:36:05.437Z,25.30
2023-06-24T12:38:32.993Z,25.44
2023-06-24T12:40:59.279Z,25.48
2023-06-24T12:43:25.619Z,25.52
2023-06-24T12:45:51.917Z,25.52
2023-06-24T12:48:18.247Z,25.57
2023-06-24T12:50:44.601Z,25.73
2023-06-24T12:53:10.921Z,25.86
2023-06-24T12:55:37.211Z,25.87
2023-06-24T12:58:03.522Z,25.90
2023-06-24T13:00:29.851Z,25.82
2023-06-24T13:02:56.285Z,25.88
2023-06-24T13:05:22.673Z,25.67
2023-06-24T13:07:48.987Z,25.92
2023-06-24T13:10:15.319Z,25.90
2023-06-24T13:12:41.636Z,25.75
2023-06-24T13:15:07.978Z,25.93
2023-06-24T13:17:34.399Z,25.84
2023-06-24T13:20:00.750Z,25.82
2023-06-24T13:22:27.064Z,25.62
2023-06-24T13:24:53.356Z,25.95
2023-06-24T13:27:19.679Z,26.12
2023-06-24T13:29:45.983Z,26.14
2023-06-24T13:32:12.286Z,26.06
2023-06-24T13:34:38.617Z,26.10
2023-06-24T13:37:04.956Z,26.29
2023-06-24T13:39:31.267Z,26.41
2023-06-24T13:41:57.588Z,26.53
2023-06-24T13:44:23.925Z,26.62
2023-06-24T13:46:50.262Z,26.63
2023-06-24T13:49:16.597Z,26.74
2023-06-24T13:51:42.909Z,26.82
2023-06-24T13:54:09.220Z,26.84
2023-06-24T13:56:35.537Z,26.84
2023-06-24T13:59:01.871Z,26.91
2023-06-24T14:01:28.255Z,27.05
2023-06-24T14:03:54.613Z,27.25
2023-06-24T14:06:20.958Z,27.26
2023-06-24T14:08:47.269Z,27.26
2023-06-24T14:11:13.590Z,27.21
2023-06-24T14:13:39.926Z,27.19
2023-06-24T14:16:06.264Z,27.26
2023-06-24T14:18:32.657Z,27.41
2023-06-24T14:20:58.988Z,27.29
2023-06-24T14:23:25.286Z,27.12
2023-06-24T14:25:51.601Z,27.26
2023-06-24T14:28:17.920Z,27.43
2023-06-24T14:30:44.265Z,27.57
2023-06-24T14:33:10.648Z,27.66
2023-06-24T14:35:37.024Z,27.80
2023-06-24T14:38:03.385Z,27.47
2023-06-24T14:40:29.679Z,27.77
2023-06-24T14:42:55.982Z,27.87
2023-06-24T14:45:22.275Z,27.98
2023-06-24T14:47:48.625Z,28.10
2023-06-24T14:50:14.951Z,27.96
2023-06-24T14:52:41.279Z,28.03
2023-06-24T14:55:07.586Z,28.08
2023-06-24T14:57:33.886Z,28.21
2023-06-24T15:00:00.200Z,28.24
2023-06-24T15:02:26.581Z,28.27
2023-06-24T15:04:52.960Z,28.35
2023-06-24T15:07:19.300Z,28.21
2023-06-24T15:09:45.625Z,28.02
2023-06-24T15:12:11.961Z,28.23
2023-06-24T15:14:38.272Z,27.96
2023-06-24T15:17:04.617Z,28.10
2023-06-24T15:19:30.942Z,28.17
2023-06-24T15:21:57.253Z,28.30
2023-06-24T15:24:23.656Z,28.48
2023-06-24T15:26:50.054Z,28.47
2023-06-24T15:29:16.364Z,28.54
2023-06-24T15:31:42.733Z,28.64
2023-06-24T15:34:09.065Z,28.61
2023-06-24T15:36:35.366Z,28.62
2023-06-24T15:39:01.675Z,28.42
2023-06-24T15:41:27.983Z,28.31
2023-06-24T15:43:54.295Z,28.25
2023-06-24T15:46:20.729Z,28.16
2023-06-24T15:48:47.169Z,28.25
2023-06-24T15:51:13.497Z,28.22
2023-06-24T15:53:39.824Z,28.25
2023-06-24T15:56:06.113Z,28.17
2023-06-24T15:58:32.425Z,28.20
2023-06-24T16:00:58.768Z,28.25
2023-06-24T16:03:25.238Z,28.29
2023-06-24T16:05:51.622Z,28.13
2023-06-24T16:08:17.915Z,28.27
2023-06-24T16:10:44.810Z,28.25
2023-06-24T16:13:11.188Z,28.18
2023-06-24T16:15:37.500Z,28.10
2023-06-24T16:18:03.917Z,28.30
2023-06-24T16:20:30.244Z,28.35
2023-06-24T16:22:56.564Z,28.47
2023-06-24T16:25:22.900Z,28.49
2023-06-24T16:27:49.267Z,28.44
2023-06-24T16:30:15.693Z,28.31
2023-06-24T16:32:42.056Z,28.26
2023-06-24T16:35:08.444Z,28.48
2023-06-24T16:37:34.812Z,28.10
2023-06-24T16:40:01.252Z,28.18
2023-06-24T16:42:27.678Z,27.99
2023-06-24T16:44:53.987Z,27.97
2023-06-24T16:47:20.290Z,28.05
2023-06-24T16:49:46.581Z,28.11
2023-06-24T16:52:12.904Z,27.89
2023-06-24T16:54:39.233Z,27.89
2023-06-24T16:57:05.566Z,27.86
2023-06-24T16:59:31.912Z,28.02
2023-06-24T17:01:58.241Z,28.11
2023-06-24T17:04:24.571Z,27.99
2023-06-24T17:06:51.044Z,27.52
2023-06-24T17:09:17.352Z,27.61
2023-06-24T17:11:43.680Z,27.63
2023-06-24T17:14:09.986Z,27.71
2023-06-24T17:16:36.310Z,27.69
2023-06-24T17:19:02.605Z,27.56
2023-06-24T17:21:28.905Z,27.64
2023-06-24T17:23:55.223Z,27.47
2023-06-24T17:26:21.520Z,27.54
2023-06-24T17:28:47.829Z,27.54
2023-06-24T17:31:14.172Z,27.49
2023-06-24T17:33:40.551Z,27.46
2023-06-24T17:36:06.873Z,27.37
2023-06-24T17:38:33.175Z,27.23
2023-06-24T17:40:59.471Z,27.12
2023-06-24T17:43:25.798Z,27.05
2023-06-24T17:45:52.160Z,26.98
2023-06-24T17:48:18.478Z,26.86
2023-06-24T17:50:44.844Z,26.61
2023-06-24T17:53:11.180Z,26.37
2023-06-24T17:55:37.474Z,26.14
2023-06-24T17:58:03.840Z,25.95
2023-06-24T18:00:30.147Z,25.73
2023-06-24T18:02:56.441Z,25.56
2023-06-24T18:05:22.958Z,25.36
2023-06-24T18:07:49.413Z,25.12
2023-06-24T18:10:15.740Z,24.82
2023-06-24T18:12:42.062Z,24.63
2023-06-24T18:15:08.413Z,24.49
2023-06-24T18:17:34.840Z,24.34
2023-06-24T18:20:01.223Z,24.07
2023-06-24T18:22:27.566Z,23.87
2023-06-24T18:24:53.883Z,23.75
2023-06-24T18:27:21.379Z,23.66
2023-06-24T18:29:49.576Z,23.54
2023-06-24T18:32:15.960Z,23.36
2023-06-24T18:34:42.314Z,23.28
2023-06-24T18:37:08.617Z,23.22
2023-06-24T18:39:34.948Z,23.14
2023-06-24T18:42:01.238Z,23.00
2023-06-24T18:44:27.541Z,22.91
2023-06-24T18:46:53.834Z,22.83
2023-06-24T18:49:20.133Z,22.70
2023-06-24T18:51:46.542Z,22.64
2023-06-24T18:54:12.891Z,22.54
2023-06-24T18:56:39.206Z,22.44
2023-06-24T18:59:05.517Z,22.29
2023-06-24T19:01:31.826Z,22.23
2023-06-24T19:03:58.122Z,22.09
2023-06-24T19:06:24.468Z,22.02
2023-06-24T19:08:50.802Z,21.97
2023-06-24T19:11:17.153Z,21.85
2023-06-24T19:13:43.464Z,21.72
2023-06-24T19:16:09.781Z,21.65
2023-06-24T19:18:36.105Z,21.57
2023-06-24T19:21:02.447Z,21.50
2023-06-24T19:23:28.758Z,21.43
2023-06-24T19:25:55.107Z,21.30
2023-06-24T19:28:21.420Z,21.21
2023-06-24T19:30:47.856Z,21.07
2023-06-24T19:33:14.266Z,21.03
2023-06-24T19:35:40.634Z,20.92
2023-06-24T19:38:06.942Z,20.84
2023-06-24T19:40:33.384Z,20.77
2023-06-24T19:42:59.768Z,20.68
2023-06-24T19:45:26.129Z,20.63
2023-06-24T19:47:52.573Z,20.57
2023-06-24T19:50:18.885Z,20.59
2023-06-24T19:52:45.204Z,20.54
2023-06-24T19:55:11.525Z,20.50
2023-06-24T19:57:37.841Z,20.43
2023-06-24T20:00:04.186Z,20.40
2023-06-24T20:02:30.516Z,20.38
2023-06-24T20:04:56.842Z,20.30
2023-06-24T20:07:23.281Z,20.34
2023-06-24T20:09:49.623Z,20.35
2023-06-24T20:12:15.930Z,20.35
2023-06-24T20:14:42.252Z,20.37
2023-06-24T20:17:08.586Z,20.33
2023-06-24T20:19:34.918Z,20.31
2023-06-24T20:22:01.246Z,20.34
2023-06-24T20:24:27.560Z,20.35
2023-06-24T20:26:53.876Z,20.30
2023-06-24T20:29:20.203Z,20.28
2023-06-24T20:31:46.579Z,20.24
2023-06-24T20:34:12.925Z,20.17
2023-06-24T20:36:39.245Z,20.04
2023-06-24T20:39:05.564Z,19.99
2023-06-24T20:41:31.930Z,19.95
2023-06-24T20:43:58.230Z,19.81
2023-06-24T20:46:24.683Z,19.77
2023-06-24T20:48:51.094Z,19.73
2023-06-24T20:51:17.443Z,19.57
2023-06-24T20:53:43.783Z,19.61
2023-06-24T20:56:10.084Z,19.61
2023-06-24T20:58:36.398Z,19.64
2023-06-24T21:01:11.888Z,19.65
2023-06-24T21:03:49.222Z,19.64
2023-06-24T21:06:15.623Z,19.67
2023-06-24T21:08:42.018Z,19.62
2023-06-24T21:11:08.316Z,19.53
2023-06-24T21:13:34.637Z,19.48
2023-06-24T21:16:00.930Z,19.48
2023-06-24T21:18:27.239Z,19.41
2023-06-24T21:20:53.548Z,19.39
2023-06-24T21:23:19.957Z,19.39
2023-06-24T21:25:46.797Z,19.34
2023-06-24T21:28:13.211Z,19.32
2023-06-24T21:30:39.520Z,19.20
2023-06-24T21:33:05.888Z,19.10
2023-06-24T21:35:32.255Z,19.01
2023-06-24T21:37:58.590Z,18.96
2023-06-24T21:40:24.893Z,18.91
2023-06-24T21:42:51.184Z,18.87
2023-06-24T21:45:17.522Z,18.83
2023-06-24T21:47:43.897Z,18.84
2023-06-24T21:50:10.221Z,18.80
2023-06-24T21:52:36.541Z,18.79
2023-06-24T21:55:02.855Z,18.74
2023-06-24T21:57:29.162Z,18.64
2023-06-24T21:59:55.505Z,18.59
2023-06-24T22:02:21.880Z,18.53
2023-06-24T22:04:48.264Z,18.55
2023-06-24T22:07:14.611Z,18.53
2023-06-24T22:09:40.998Z,18.50
2023-06-24T22:12:07.347Z,18.48
2023-06-24T22:14:33.652Z,18.49
2023-06-24T22:16:59.944Z,18.43
2023-06-24T22:19:26.259Z,18.41
2023-06-24T22:21:52.570Z,18.41
2023-06-24T22:24:18.910Z,18.37
2023-06-24T22:26:45.249Z,18.39
2023-06-24T22:29:11.577Z,18.36
2023-06-24T22:31:37.875Z,18.33
2023-06-24T22:34:04.197Z,18.32
2023-06-24T22:36:30.512Z,18.29
2023-06-24T22:38:56.839Z,18.24
2023-06-24T22:41:23.156Z,18.15
2023-06-24T22:43:49.497Z,18.13
2023-06-24T22:46:15.864Z,18.11
2023-06-24T22:48:42.262Z,18.14
2023-06-24T22:51:08.671Z,18.18
2023-06-24T22:53:34.994Z,18.08
2023-06-24T22:56:01.323Z,18.04
2023-06-24T22:58:27.646Z,17.99
2023-06-24T23:00:53.936Z,18.00
2023-06-24T23:03:20.437Z,17.93
2023-06-24T23:05:46.794Z,17.93
2023-06-24T23:08:13.087Z,17.88
2023-06-24T23:10:39.379Z,17.82
2023-06-24T23:13:05.713Z,17.75
2023-06-24T23:15:32.040Z,17.74
2023-06-24T23:17:58.430Z,17.79
2023-06-24T23:20:24.759Z,17.87
2023-06-24T23:22:51.086Z,17.87
2023-06-24T23:25:17.416Z,17.94
2023-06-24T23:27:43.740Z,17.93
2023-06-24T23:30:10.068Z,17.96
2023-06-24T23:32:36.416Z,17.95
2023-06-24T23:35:02.738Z,17.99
2023-06-24T23:37:29.046Z,17.99
2023-06-24T23:39:55.391Z,17.99
2023-06-24T23:42:21.716Z,17.99
2023-06-24T23:44:48.040Z,18.03
2023-06-24T23:47:14.378Z,18.04
2023-06-24T23:49:40.681Z,18.06
2023-06-24T23:52:06.978Z,18.01
2023-06-24T23:54:33.301Z,17.94
2023-06-24T23:56:59.598Z,17.93
2023-06-24T23:59:25.906Z,17.92
